createdAt,value
2019-01-26T00:00:11.006Z,76.92
2019-01-26T00:01:10.998Z,77.03
2019-01-26T00:02:11.037Z,78.30
2019-01-26T00:03:10.991Z,78.19
2019-01-26T00:04:10.963Z,77.87
2019-01-26T00:05:10.946Z,77.87
2019-01-26T00:06:10.957Z,77.98
2019-01-26T00:07:10.929Z,78.19
2019-01-26T00:08:10.920Z,78.08
2019-01-26T00:09:10.968Z,77.24
2019-01-26T00:10:10.892Z,77.77
2019-01-26T00:11:10.903Z,77.56
2019-01-26T00:12:10.870Z,78.19
2019-01-26T00:13:10.862Z,77.87
2019-01-26T00:14:10.878Z,77.45
2019-01-26T00:15:10.908Z,77.03
2019-01-26T00:16:10.827Z,77.98
2019-01-26T00:17:10.858Z,78.61
2019-01-26T00:18:10.825Z,78.50
2019-01-26T00:19:10.795Z,77.77
2019-01-26T00:20:10.799Z,78.30
2019-01-26T00:21:10.791Z,77.87
2019-01-26T00:22:10.813Z,77.77
2019-01-26T00:23:10.782Z,77.98
2019-01-26T00:24:10.759Z,77.98
2019-01-26T00:25:10.728Z,77.87
2019-01-26T00:26:10.719Z,77.98
2019-01-26T00:27:10.740Z,78.08
2019-01-26T00:28:10.694Z,78.08
2019-01-26T00:29:10.715Z,78.26
2019-01-26T00:30:10.678Z,78.05
2019-01-26T00:31:10.672Z,77.52
2019-01-26T00:32:10.658Z,77.94
2019-01-26T00:33:10.686Z,78.05
2019-01-26T00:34:10.638Z,77.84
2019-01-26T00:35:10.623Z,77.73
2019-01-26T00:36:10.611Z,77.84
2019-01-26T00:37:10.597Z,77.94
2019-01-26T00:38:10.601Z,77.63
2019-01-26T00:39:10.610Z,78.05
2019-01-26T00:40:10.566Z,76.89
2019-01-26T00:41:10.563Z,78.26
2019-01-26T00:42:10.562Z,77.28
2019-01-26T00:43:10.554Z,78.33
2019-01-26T00:44:10.524Z,77.42
2019-01-26T00:45:10.540Z,77.52
2019-01-26T00:46:10.569Z,77.52
2019-01-26T00:47:10.496Z,77.73
2019-01-26T00:48:10.477Z,78.36
2019-01-26T00:49:10.477Z,77.94
2019-01-26T00:50:10.451Z,76.96
2019-01-26T00:51:10.458Z,76.47
2019-01-26T00:52:10.444Z,76.89
2019-01-26T00:53:10.459Z,76.57
2019-01-26T00:54:10.417Z,76.36
2019-01-26T00:55:10.410Z,76.75
2019-01-26T00:56:10.616Z,77.17
2019-01-26T00:57:10.389Z,76.26
2019-01-26T00:58:10.366Z,76.33
2019-01-26T00:59:10.415Z,76.26
2019-01-26T01:00:10.354Z,76.36
2019-01-26T01:01:10.333Z,76.36
2019-01-26T01:02:10.390Z,76.23
2019-01-26T01:03:10.316Z,76.47
2019-01-26T01:04:10.304Z,76.01
2019-01-26T01:05:10.292Z,76.43
2019-01-26T01:06:10.303Z,76.33
2019-01-26T01:07:10.307Z,76.43
2019-01-26T01:08:10.262Z,76.33
2019-01-26T01:09:10.298Z,76.57
2019-01-26T01:10:10.231Z,75.17
2019-01-26T01:11:10.232Z,76.33
2019-01-26T01:12:10.216Z,76.54
2019-01-26T01:13:10.221Z,75.84
2019-01-26T01:14:10.207Z,75.81
2019-01-26T01:15:10.187Z,75.59
2019-01-26T01:16:10.194Z,74.96
2019-01-26T01:17:10.159Z,74.96
2019-01-26T01:18:10.155Z,75.91
2019-01-26T01:19:10.147Z,75.59
2019-01-26T01:20:10.127Z,74.96
2019-01-26T01:21:10.121Z,75.27
2019-01-26T01:22:10.119Z,75.70
2019-01-26T01:23:10.149Z,75.59
2019-01-26T01:24:10.089Z,75.81
2019-01-26T01:25:10.083Z,75.70
2019-01-26T01:26:10.077Z,76.01
2019-01-26T01:27:10.061Z,75.91
2019-01-26T01:28:10.063Z,76.01
2019-01-26T01:29:10.029Z,75.38
2019-01-26T01:30:10.018Z,75.91
2019-01-26T01:31:10.014Z,75.27
2019-01-26T01:32:10.004Z,75.17
2019-01-26T01:33:10.069Z,74.85
2019-01-26T01:34:09.980Z,74.75
2019-01-26T01:35:09.969Z,75.17
2019-01-26T01:36:09.965Z,75.17
2019-01-26T01:37:09.945Z,74.96
2019-01-26T01:38:09.941Z,75.07
2019-01-26T01:39:09.974Z,74.54
2019-01-26T01:40:09.914Z,74.43
2019-01-26T01:41:09.907Z,74.33
2019-01-26T01:42:09.891Z,74.65
2019-01-26T01:43:09.878Z,74.65
2019-01-26T01:44:09.883Z,74.96
2019-01-26T01:45:09.850Z,74.85
2019-01-26T01:46:09.915Z,74.54
2019-01-26T01:47:09.832Z,74.43
2019-01-26T01:48:09.839Z,73.98
2019-01-26T01:49:09.812Z,73.91
2019-01-26T01:50:09.803Z,74.40
2019-01-26T01:51:09.793Z,74.43
2019-01-26T01:52:09.806Z,74.54
2019-01-26T01:53:09.772Z,74.43
2019-01-26T01:54:09.769Z,74.08
2019-01-26T01:55:09.753Z,74.51
2019-01-26T01:56:09.747Z,73.91
2019-01-26T01:57:09.734Z,74.65
2019-01-26T01:58:09.750Z,74.29
2019-01-26T01:59:09.702Z,74.29
2019-01-26T02:00:09.703Z,74.51
2019-01-26T02:01:09.685Z,74.51
2019-01-26T02:02:09.670Z,74.01
2019-01-26T02:03:09.666Z,73.91
2019-01-26T02:04:09.647Z,73.77
2019-01-26T02:05:09.690Z,73.88
2019-01-26T02:06:09.637Z,74.40
2019-01-26T02:07:09.613Z,73.98
2019-01-26T02:08:10.461Z,73.66
2019-01-26T02:09:09.591Z,73.66
2019-01-26T02:10:09.615Z,73.66
2019-01-26T02:11:09.599Z,73.03
2019-01-26T02:12:09.559Z,73.66
2019-01-26T02:13:09.549Z,73.74
2019-01-26T02:14:09.545Z,73.24
2019-01-26T02:15:09.526Z,73.24
2019-01-26T02:16:09.543Z,73.35
2019-01-26T02:17:09.516Z,72.92
2019-01-26T02:18:09.535Z,73.14
2019-01-26T02:19:09.497Z,73.24
2019-01-26T02:20:09.473Z,73.35
2019-01-26T02:21:09.475Z,73.66
2019-01-26T02:22:09.457Z,73.24
2019-01-26T02:23:09.447Z,73.03
2019-01-26T02:24:09.431Z,73.21
2019-01-26T02:25:09.464Z,73.77
2019-01-26T02:26:09.418Z,73.63
2019-01-26T02:27:09.405Z,73.84
2019-01-26T02:28:09.385Z,73.21
2019-01-26T02:29:09.378Z,73.03
2019-01-26T02:30:09.362Z,72.27
2019-01-26T02:31:09.404Z,72.58
2019-01-26T02:32:09.359Z,72.58
2019-01-26T02:33:09.334Z,73.03
2019-01-26T02:34:09.322Z,72.68
2019-01-26T02:35:09.311Z,72.47
2019-01-26T02:36:09.298Z,72.92
2019-01-26T02:37:09.344Z,72.89
2019-01-26T02:38:09.284Z,72.72
2019-01-26T02:39:09.272Z,73.24
2019-01-26T02:40:09.271Z,73.32
2019-01-26T02:41:09.268Z,73.32
2019-01-26T02:42:09.253Z,73.10
2019-01-26T02:43:09.231Z,73.21
2019-01-26T02:44:09.207Z,73.21
2019-01-26T02:45:09.246Z,73.00
2019-01-26T02:46:09.208Z,73.32
2019-01-26T02:47:09.197Z,73.63
2019-01-26T02:48:09.188Z,73.21
2019-01-26T02:49:09.199Z,72.92
2019-01-26T02:50:09.159Z,73.32
2019-01-26T02:51:09.133Z,73.52
2019-01-26T02:52:09.188Z,73.74
2019-01-26T02:53:09.173Z,73.74
2019-01-26T02:54:09.121Z,73.42
2019-01-26T02:55:09.093Z,73.52
2019-01-26T02:56:09.076Z,74.05
2019-01-26T02:57:09.068Z,73.63
2019-01-26T02:58:09.088Z,73.88
2019-01-26T02:59:09.054Z,73.94
2019-01-26T03:00:09.044Z,74.61
2019-01-26T03:01:09.021Z,74.68
2019-01-26T03:02:09.012Z,75.00
2019-01-26T03:03:09.000Z,75.10
2019-01-26T03:04:09.053Z,75.10
2019-01-26T03:05:08.982Z,74.79
2019-01-26T03:06:08.971Z,74.89
2019-01-26T03:07:08.963Z,75.10
2019-01-26T03:08:08.963Z,75.10
2019-01-26T03:09:08.938Z,75.49
2019-01-26T03:10:08.980Z,74.96
2019-01-26T03:11:08.921Z,74.68
2019-01-26T03:12:08.916Z,74.89
2019-01-26T03:13:08.894Z,74.89
2019-01-26T03:14:08.886Z,74.65
2019-01-26T03:15:08.883Z,74.44
2019-01-26T03:16:08.902Z,73.63
2019-01-26T03:17:08.853Z,73.81
2019-01-26T03:18:08.851Z,73.81
2019-01-26T03:19:08.835Z,73.81
2019-01-26T03:20:08.830Z,73.91
2019-01-26T03:21:08.828Z,73.81
2019-01-26T03:22:08.848Z,73.81
2019-01-26T03:23:08.786Z,73.88
2019-01-26T03:24:08.779Z,73.67
2019-01-26T03:25:08.797Z,74.09
2019-01-26T03:26:08.758Z,73.77
2019-01-26T03:27:08.748Z,74.40
2019-01-26T03:28:08.773Z,74.82
2019-01-26T03:29:08.719Z,74.82
2019-01-26T03:30:08.713Z,74.72
2019-01-26T03:31:09.015Z,75.24
2019-01-26T03:32:08.699Z,76.29
2019-01-26T03:33:08.684Z,76.61
2019-01-26T03:34:08.672Z,77.45
2019-01-26T03:35:08.685Z,78.08
2019-01-26T03:36:08.658Z,77.98
2019-01-26T03:37:08.638Z,77.56
2019-01-26T03:38:08.627Z,78.15
2019-01-26T03:39:08.629Z,79.52
2019-01-26T03:40:08.605Z,79.87
2019-01-26T03:41:08.661Z,79.83
2019-01-26T03:42:09.583Z,80.88
2019-01-26T03:43:08.570Z,81.45
2019-01-26T03:44:08.561Z,82.25
2019-01-26T03:45:08.546Z,82.60
2019-01-26T03:46:08.551Z,83.61
2019-01-26T03:47:13.652Z,84.14
2019-01-26T03:48:09.627Z,85.33
2019-01-26T03:49:08.504Z,86.28
2019-01-26T03:50:08.494Z,87.65
2019-01-26T03:51:08.481Z,88.70
2019-01-26T03:52:08.492Z,89.01
2019-01-26T03:53:08.467Z,89.64
2019-01-26T03:54:08.476Z,90.59
2019-01-26T03:55:08.447Z,91.43
2019-01-26T03:56:08.429Z,92.48
2019-01-26T03:57:08.439Z,92.10
2019-01-26T03:58:08.412Z,93.37
2019-01-26T03:59:08.395Z,93.68
2019-01-26T04:00:08.428Z,94.10
2019-01-26T04:01:08.387Z,93.89
2019-01-26T04:02:08.370Z,94.62
2019-01-26T04:03:08.361Z,94.84
2019-01-26T04:04:08.345Z,94.78
2019-01-26T04:05:08.333Z,94.78
2019-01-26T04:06:08.368Z,95.40
2019-01-26T04:07:08.319Z,94.98
2019-01-26T04:08:08.323Z,96.03
2019-01-26T04:09:08.288Z,95.83
2019-01-26T04:10:08.281Z,96.25
2019-01-26T04:11:08.269Z,96.77
2019-01-26T04:12:08.290Z,96.56
2019-01-26T04:13:08.270Z,96.98
2019-01-26T04:14:08.234Z,97.19
2019-01-26T04:15:08.224Z,97.09
2019-01-26T04:16:08.221Z,97.41
2019-01-26T04:17:08.206Z,97.82
2019-01-26T04:18:08.220Z,97.51
2019-01-26T04:19:08.204Z,97.41
2019-01-26T04:20:08.168Z,97.19
2019-01-26T04:21:08.157Z,97.41
2019-01-26T04:22:08.148Z,97.19
2019-01-26T04:23:08.204Z,97.19
2019-01-26T04:24:08.161Z,97.30
2019-01-26T04:25:08.113Z,98.03
2019-01-26T04:26:08.100Z,98.46
2019-01-26T04:27:08.125Z,98.14
2019-01-26T04:28:08.078Z,98.03
2019-01-26T04:29:08.105Z,98.14
2019-01-26T04:30:08.103Z,98.14
2019-01-26T04:31:08.048Z,98.35
2019-01-26T04:32:08.034Z,98.14
2019-01-26T04:33:08.027Z,98.14
2019-01-26T04:34:08.014Z,98.35
2019-01-26T04:35:08.056Z,98.14
2019-01-26T04:36:08.001Z,98.56
2019-01-26T04:37:07.989Z,98.46
2019-01-26T04:38:07.977Z,98.14
2019-01-26T04:39:07.965Z,98.03
2019-01-26T04:40:07.955Z,98.56
2019-01-26T04:41:07.966Z,99.30
2019-01-26T04:42:07.932Z,99.51
2019-01-26T04:43:07.928Z,98.77
2019-01-26T04:44:07.921Z,99.30
2019-01-26T04:45:07.924Z,99.30
2019-01-26T04:46:07.900Z,99.19
2019-01-26T04:47:07.913Z,99.99
2019-01-26T04:48:07.862Z,99.82
2019-01-26T04:49:07.858Z,99.93
2019-01-26T04:50:07.861Z,99.82
2019-01-26T04:51:07.829Z,99.99
2019-01-26T04:52:07.817Z,99.61
2019-01-26T04:53:07.839Z,99.72
2019-01-26T04:54:07.799Z,99.82
2019-01-26T04:55:07.793Z,99.82
2019-01-26T04:56:07.819Z,99.99
2019-01-26T04:57:07.766Z,99.99
2019-01-26T04:58:07.754Z,99.99
2019-01-26T04:59:07.786Z,99.99
2019-01-26T05:00:07.736Z,99.99
2019-01-26T05:01:07.731Z,99.93
2019-01-26T05:02:07.718Z,99.99
2019-01-26T05:03:07.712Z,99.99
2019-01-26T05:04:07.708Z,99.99
2019-01-26T05:05:07.709Z,99.93
2019-01-26T05:06:07.683Z,99.78
2019-01-26T05:07:07.662Z,99.67
2019-01-26T05:08:07.647Z,99.88
2019-01-26T05:09:07.643Z,99.78
2019-01-26T05:10:07.632Z,99.99
2019-01-26T05:11:07.638Z,99.88
2019-01-26T05:12:07.614Z,99.99
2019-01-26T05:13:07.591Z,99.99
2019-01-26T05:14:07.582Z,99.99
2019-01-26T05:15:07.572Z,99.99
2019-01-26T05:16:07.560Z,99.99
2019-01-26T05:17:07.587Z,99.99
2019-01-26T05:18:07.563Z,99.99
2019-01-26T05:19:07.532Z,99.99
2019-01-26T05:20:07.533Z,99.99
2019-01-26T05:21:07.502Z,99.67
2019-01-26T05:22:07.520Z,99.99
2019-01-26T05:23:07.522Z,99.99
2019-01-26T05:24:07.473Z,99.99
2019-01-26T05:25:07.460Z,99.99
2019-01-26T05:26:07.454Z,99.99
2019-01-26T05:27:07.451Z,99.99
2019-01-26T05:28:07.466Z,99.99
2019-01-26T05:29:07.418Z,99.99
2019-01-26T05:30:07.431Z,99.99
2019-01-26T05:31:07.421Z,99.99
2019-01-26T05:32:07.384Z,99.99
2019-01-26T05:33:07.393Z,99.99
2019-01-26T05:34:07.399Z,99.99
2019-01-26T05:35:07.354Z,99.99
2019-01-26T05:36:07.340Z,99.99
2019-01-26T05:37:07.356Z,99.99
2019-01-26T05:38:07.335Z,99.99
2019-01-26T05:39:07.308Z,99.99
2019-01-26T05:40:07.297Z,99.99
2019-01-26T05:41:07.292Z,99.99
2019-01-26T05:42:07.345Z,99.99
2019-01-26T05:43:07.287Z,99.99
2019-01-26T05:44:07.255Z,99.99
2019-01-26T05:45:07.244Z,99.99
2019-01-26T05:46:07.231Z,99.99
2019-01-26T05:47:07.222Z,99.99
2019-01-26T05:48:07.226Z,99.99
2019-01-26T05:49:07.203Z,99.99
2019-01-26T05:50:07.189Z,99.99
2019-01-26T05:51:07.177Z,99.99
2019-01-26T05:52:07.173Z,99.99
2019-01-26T05:53:07.158Z,99.99
2019-01-26T05:54:07.178Z,99.99
2019-01-26T05:55:07.144Z,99.99
2019-01-26T05:56:07.124Z,99.99
2019-01-26T05:57:07.112Z,99.99
2019-01-26T05:58:07.104Z,99.99
2019-01-26T05:59:07.114Z,99.99
2019-01-26T06:00:07.092Z,99.99
2019-01-26T06:01:07.085Z,99.99
2019-01-26T06:02:07.069Z,99.99
2019-01-26T06:03:07.073Z,99.99
2019-01-26T06:04:07.052Z,99.99
2019-01-26T06:05:07.046Z,99.99
2019-01-26T06:06:07.019Z,99.99
2019-01-26T06:07:07.004Z,99.73
2019-01-26T06:08:07.010Z,99.99
2019-01-26T06:09:06.992Z,99.99
2019-01-26T06:10:06.971Z,99.95
2019-01-26T06:11:06.965Z,99.90
2019-01-26T06:12:06.952Z,99.95
2019-01-26T06:13:06.956Z,99.99
2019-01-26T06:14:06.935Z,99.99
2019-01-26T06:15:06.923Z,99.27
2019-01-26T06:16:06.909Z,99.37
2019-01-26T06:17:06.898Z,99.99
2019-01-26T06:18:06.887Z,99.79
2019-01-26T06:19:06.921Z,99.48
2019-01-26T06:20:06.863Z,99.27
2019-01-26T06:21:06.858Z,99.48
2019-01-26T06:22:06.849Z,99.58
2019-01-26T06:23:06.833Z,99.99
2019-01-26T06:24:06.822Z,99.99
2019-01-26T06:25:06.893Z,99.90
2019-01-26T06:26:06.822Z,99.99
2019-01-26T06:27:06.793Z,99.99
2019-01-26T06:28:06.802Z,99.90
2019-01-26T06:29:06.789Z,99.99
2019-01-26T06:30:06.768Z,99.27
2019-01-26T06:31:06.762Z,99.99
2019-01-26T06:32:06.737Z,99.48
2019-01-26T06:33:06.732Z,98.49
2019-01-26T06:34:06.839Z,99.16
2019-01-26T06:35:06.730Z,99.58
2019-01-26T06:36:06.697Z,99.43
2019-01-26T06:37:06.705Z,99.43
2019-01-26T06:38:06.696Z,99.11
2019-01-26T06:39:06.664Z,99.01
2019-01-26T06:40:06.685Z,99.01
2019-01-26T06:41:06.644Z,99.16
2019-01-26T06:42:06.632Z,99.11
2019-01-26T06:43:06.629Z,98.69
2019-01-26T06:44:06.613Z,99.33
2019-01-26T06:45:06.601Z,98.49
2019-01-26T06:46:06.591Z,98.91
2019-01-26T06:47:06.624Z,98.91
2019-01-26T06:48:06.572Z,98.80
2019-01-26T06:49:06.634Z,98.75
2019-01-26T06:50:06.566Z,98.80
2019-01-26T06:51:06.553Z,97.86
2019-01-26T06:52:06.519Z,98.07
2019-01-26T06:53:06.518Z,98.38
2019-01-26T06:54:06.497Z,97.92
2019-01-26T06:55:06.543Z,97.92
2019-01-26T06:56:06.473Z,97.92
2019-01-26T06:57:06.507Z,97.92
2019-01-26T06:58:06.458Z,98.13
2019-01-26T06:59:06.536Z,97.18
2019-01-26T07:00:06.462Z,96.87
2019-01-26T07:01:06.427Z,96.97
2019-01-26T07:02:06.471Z,97.08
2019-01-26T07:03:06.404Z,96.77
2019-01-26T07:04:06.393Z,96.72
2019-01-26T07:05:06.407Z,96.45
2019-01-26T07:06:06.384Z,96.77
2019-01-26T07:07:06.379Z,96.45
2019-01-26T07:08:06.348Z,95.98
2019-01-26T07:09:06.336Z,95.88
2019-01-26T07:10:06.370Z,95.98
2019-01-26T07:11:06.330Z,96.19
2019-01-26T07:12:06.304Z,95.46
2019-01-26T07:13:06.288Z,95.36
2019-01-26T07:14:06.281Z,95.56
2019-01-26T07:15:06.275Z,95.67
2019-01-26T07:16:06.267Z,95.56
2019-01-26T07:17:06.271Z,95.67
2019-01-26T07:18:09.483Z,95.78
2019-01-26T07:19:06.231Z,95.98
2019-01-26T07:20:06.220Z,95.88
2019-01-26T07:21:06.245Z,95.94
2019-01-26T07:22:06.206Z,96.19
2019-01-26T07:23:06.182Z,94.68
2019-01-26T07:24:06.171Z,94.47
2019-01-26T07:25:06.156Z,95.10
2019-01-26T07:26:06.150Z,94.68
2019-01-26T07:27:06.193Z,94.47
2019-01-26T07:28:06.125Z,94.37
2019-01-26T07:29:06.126Z,94.89
2019-01-26T07:30:06.152Z,94.58
2019-01-26T07:31:06.690Z,94.89
2019-01-26T07:32:06.097Z,94.79
2019-01-26T07:33:06.104Z,94.37
2019-01-26T07:34:06.060Z,94.89
2019-01-26T07:35:06.048Z,94.68
2019-01-26T07:36:06.038Z,94.74
2019-01-26T07:37:06.049Z,94.64
2019-01-26T07:38:06.053Z,95.17
2019-01-26T07:39:06.005Z,95.10
2019-01-26T07:40:05.998Z,95.27
2019-01-26T07:41:05.988Z,95.06
2019-01-26T07:42:05.987Z,95.27
2019-01-26T07:43:05.962Z,94.64
2019-01-26T07:44:05.992Z,94.64
2019-01-26T07:45:05.945Z,94.68
2019-01-26T07:46:05.929Z,94.74
2019-01-26T07:47:05.921Z,94.85
2019-01-26T07:48:05.912Z,94.85
2019-01-26T07:49:05.909Z,94.64
2019-01-26T07:50:05.917Z,94.74
2019-01-26T07:51:05.871Z,94.64
2019-01-26T07:52:05.867Z,94.74
2019-01-26T07:53:05.858Z,94.70
2019-01-26T07:54:05.878Z,94.70
2019-01-26T07:55:05.833Z,94.91
2019-01-26T07:56:05.853Z,94.70
2019-01-26T07:57:05.814Z,95.01
2019-01-26T07:58:05.801Z,94.18
2019-01-26T07:59:05.792Z,95.01
2019-01-26T08:00:05.780Z,94.70
2019-01-26T08:01:05.766Z,95.01
2019-01-26T08:02:05.756Z,94.56
2019-01-26T08:03:05.770Z,93.55
2019-01-26T08:04:05.732Z,95.12
2019-01-26T08:05:05.722Z,94.49
2019-01-26T08:06:05.717Z,94.49
2019-01-26T08:07:05.699Z,94.87
2019-01-26T08:08:05.701Z,94.07
2019-01-26T08:09:05.728Z,94.76
2019-01-26T08:10:05.665Z,94.76
2019-01-26T08:11:05.655Z,94.03
2019-01-26T08:12:05.646Z,93.93
2019-01-26T08:13:05.648Z,93.51
2019-01-26T08:14:05.634Z,94.56
2019-01-26T08:15:05.650Z,94.13
2019-01-26T08:16:05.606Z,94.03
2019-01-26T08:17:05.589Z,93.51
2019-01-26T08:18:05.586Z,94.24
2019-01-26T08:19:05.577Z,94.24
2019-01-26T08:20:05.558Z,93.93
2019-01-26T08:21:05.583Z,94.34
2019-01-26T08:22:05.539Z,94.09
2019-01-26T08:23:05.526Z,93.82
2019-01-26T08:24:05.535Z,93.71
2019-01-26T08:25:05.504Z,93.88
2019-01-26T08:26:05.492Z,94.51
2019-01-26T08:27:05.514Z,93.99
2019-01-26T08:28:05.475Z,93.88
2019-01-26T08:29:05.473Z,93.93
2019-01-26T08:30:05.458Z,93.88
2019-01-26T08:31:05.437Z,93.46
2019-01-26T08:32:05.426Z,93.57
2019-01-26T08:33:05.440Z,93.36
2019-01-26T08:34:05.402Z,94.40
2019-01-26T08:35:05.400Z,94.30
2019-01-26T08:36:05.379Z,94.82
2019-01-26T08:37:05.381Z,93.57
2019-01-26T08:38:05.411Z,94.20
2019-01-26T08:39:05.378Z,94.51
2019-01-26T08:40:05.340Z,94.26
2019-01-26T08:41:05.327Z,94.15
2019-01-26T08:42:05.318Z,94.72
2019-01-26T08:43:05.305Z,93.42
2019-01-26T08:44:05.308Z,94.57
2019-01-26T08:45:05.308Z,94.20
2019-01-26T08:46:05.279Z,93.21
2019-01-26T08:47:05.271Z,93.84
2019-01-26T08:48:05.281Z,94.15
2019-01-26T08:49:05.259Z,94.05
2019-01-26T08:50:05.246Z,94.62
2019-01-26T08:51:05.259Z,94.05
2019-01-26T08:52:05.220Z,94.57
2019-01-26T08:53:05.209Z,94.57
2019-01-26T08:54:05.259Z,94.46
2019-01-26T08:55:05.182Z,94.46
2019-01-26T08:56:05.189Z,94.57
2019-01-26T08:57:05.161Z,94.26
2019-01-26T08:58:05.151Z,94.11
2019-01-26T08:59:05.153Z,94.46
2019-01-26T09:00:05.148Z,94.32
2019-01-26T09:01:05.116Z,94.15
2019-01-26T09:02:05.106Z,94.11
2019-01-26T09:03:05.106Z,93.90
2019-01-26T09:04:05.092Z,94.21
2019-01-26T09:05:05.087Z,93.90
2019-01-26T09:06:05.071Z,93.48
2019-01-26T09:07:05.071Z,93.38
2019-01-26T09:08:05.065Z,93.38
2019-01-26T09:09:05.057Z,93.80
2019-01-26T09:10:05.055Z,94.11
2019-01-26T09:11:05.057Z,94.27
2019-01-26T09:12:04.989Z,94.21
2019-01-26T09:13:04.987Z,94.07
2019-01-26T09:14:05.003Z,94.17
2019-01-26T09:15:04.978Z,94.27
2019-01-26T09:16:04.970Z,94.27
2019-01-26T09:17:04.947Z,93.54
2019-01-26T09:18:04.958Z,94.17
2019-01-26T09:19:04.947Z,93.65
2019-01-26T09:20:04.957Z,93.54
2019-01-26T09:21:04.931Z,94.07
2019-01-26T09:22:04.937Z,94.17
2019-01-26T09:23:04.893Z,94.07
2019-01-26T09:24:04.901Z,93.86
2019-01-26T09:25:04.896Z,93.96
2019-01-26T09:26:04.876Z,93.54
2019-01-26T09:27:04.828Z,93.65
2019-01-26T09:28:04.810Z,93.86
2019-01-26T09:29:04.813Z,93.54
2019-01-26T09:30:04.800Z,94.17
2019-01-26T09:31:04.782Z,93.96
2019-01-26T09:32:04.795Z,93.65
2019-01-26T09:33:04.764Z,94.02
2019-01-26T09:34:04.755Z,93.92
2019-01-26T09:35:04.764Z,93.96
2019-01-26T09:36:04.738Z,94.44
2019-01-26T09:37:04.741Z,93.50
2019-01-26T09:38:04.767Z,93.71
2019-01-26T09:39:04.727Z,93.82
2019-01-26T09:40:04.711Z,93.71
2019-01-26T09:41:04.682Z,94.34
2019-01-26T09:42:04.684Z,94.49
2019-01-26T09:43:04.687Z,93.61
2019-01-26T09:44:04.681Z,94.23
2019-01-26T09:45:04.677Z,94.44
2019-01-26T09:46:04.616Z,93.61
2019-01-26T09:47:04.652Z,94.34
2019-01-26T09:48:04.619Z,94.23
2019-01-26T09:49:04.619Z,94.09
2019-01-26T09:50:04.618Z,94.34
2019-01-26T09:51:04.575Z,94.44
2019-01-26T09:52:04.594Z,94.34
2019-01-26T09:53:04.573Z,94.55
2019-01-26T09:54:04.531Z,93.82
2019-01-26T09:55:04.566Z,94.23
2019-01-26T09:56:04.524Z,94.34
2019-01-26T09:57:04.515Z,94.02
2019-01-26T09:58:04.506Z,94.29
2019-01-26T09:59:04.486Z,94.44
2019-01-26T10:00:04.469Z,94.44
2019-01-26T10:01:04.460Z,94.23
2019-01-26T10:02:04.454Z,94.55
2019-01-26T10:03:04.462Z,94.44
2019-01-26T10:04:04.441Z,94.23
2019-01-26T10:05:04.436Z,94.23
2019-01-26T10:06:04.426Z,94.02
2019-01-26T10:07:04.421Z,94.55
2019-01-26T10:08:04.380Z,94.65
2019-01-26T10:09:04.412Z,94.44
2019-01-26T10:10:04.377Z,94.55
2019-01-26T10:11:04.385Z,94.44
2019-01-26T10:12:04.341Z,94.23
2019-01-26T10:13:04.418Z,94.40
2019-01-26T10:14:04.344Z,94.29
2019-01-26T10:15:04.367Z,94.65
2019-01-26T10:16:04.309Z,93.88
2019-01-26T10:17:04.299Z,94.29
2019-01-26T10:18:04.262Z,94.09
2019-01-26T10:19:04.259Z,94.29
2019-01-26T10:20:04.244Z,94.09
2019-01-26T10:21:04.236Z,94.19
2019-01-26T10:22:04.247Z,94.71
2019-01-26T10:23:04.211Z,94.19
2019-01-26T10:24:04.196Z,94.50
2019-01-26T10:25:04.189Z,94.40
2019-01-26T10:26:04.188Z,94.40
2019-01-26T10:27:04.182Z,94.19
2019-01-26T10:28:04.171Z,94.35
2019-01-26T10:29:04.140Z,94.35
2019-01-26T10:30:05.024Z,94.25
2019-01-26T10:31:04.127Z,93.00
2019-01-26T10:32:04.108Z,93.21
2019-01-26T10:33:04.105Z,94.25
2019-01-26T10:34:04.120Z,94.25
2019-01-26T10:35:04.087Z,94.46
2019-01-26T10:36:04.067Z,94.15
2019-01-26T10:37:04.052Z,93.21
2019-01-26T10:38:04.049Z,93.41
2019-01-26T10:39:04.036Z,93.16
2019-01-26T10:40:04.038Z,93.21
2019-01-26T10:41:04.027Z,93.16
2019-01-26T10:42:04.000Z,92.96
2019-01-26T10:43:03.991Z,93.27
2019-01-26T10:44:03.988Z,92.33
2019-01-26T10:45:03.968Z,92.44
2019-01-26T10:46:03.991Z,92.44
2019-01-26T10:47:03.981Z,93.37
2019-01-26T10:48:03.945Z,93.16
2019-01-26T10:49:03.932Z,93.37
2019-01-26T10:50:03.923Z,92.65
2019-01-26T10:51:03.915Z,91.81
2019-01-26T10:52:03.934Z,91.71
2019-01-26T10:53:03.899Z,92.96
2019-01-26T10:54:03.866Z,92.54
2019-01-26T10:55:03.856Z,92.22
2019-01-26T10:56:03.856Z,92.65
2019-01-26T10:57:03.849Z,92.33
2019-01-26T10:58:03.831Z,92.71
2019-01-26T10:59:03.833Z,92.81
2019-01-26T11:00:03.815Z,92.44
2019-01-26T11:01:03.800Z,92.12
2019-01-26T11:02:03.851Z,93.02
2019-01-26T11:03:03.787Z,93.12
2019-01-26T11:04:03.755Z,93.33
2019-01-26T11:05:03.779Z,92.91
2019-01-26T11:06:03.746Z,92.08
2019-01-26T11:07:03.727Z,92.29
2019-01-26T11:08:03.726Z,93.12
2019-01-26T11:09:03.746Z,93.02
2019-01-26T11:10:03.695Z,93.12
2019-01-26T11:11:03.699Z,92.81
2019-01-26T11:12:03.683Z,92.91
2019-01-26T11:13:03.659Z,92.71
2019-01-26T11:14:03.648Z,91.87
2019-01-26T11:15:03.651Z,92.25
2019-01-26T11:16:03.675Z,92.35
2019-01-26T11:17:03.631Z,92.91
2019-01-26T11:18:03.619Z,92.71
2019-01-26T11:19:07.827Z,92.18
2019-01-26T11:20:03.615Z,92.46
2019-01-26T11:21:03.573Z,92.97
2019-01-26T11:22:03.571Z,93.18
2019-01-26T11:23:03.565Z,92.87
2019-01-26T11:24:03.547Z,92.46
2019-01-26T11:25:03.558Z,92.03
2019-01-26T11:26:03.520Z,92.77
2019-01-26T11:27:03.536Z,92.77
2019-01-26T11:28:03.491Z,92.77
2019-01-26T11:29:03.486Z,92.66
2019-01-26T11:30:03.472Z,92.14
2019-01-26T11:31:03.463Z,91.93
2019-01-26T11:32:03.467Z,92.35
2019-01-26T11:33:03.494Z,92.46
2019-01-26T11:34:03.428Z,92.35
2019-01-26T11:35:03.425Z,92.25
2019-01-26T11:36:03.498Z,92.62
2019-01-26T11:37:03.413Z,91.58
2019-01-26T11:38:03.389Z,91.62
2019-01-26T11:39:03.386Z,91.68
2019-01-26T11:40:03.356Z,91.27
2019-01-26T11:41:03.406Z,91.89
2019-01-26T11:42:03.346Z,91.68
2019-01-26T11:43:03.344Z,90.95
2019-01-26T11:44:03.312Z,90.44
2019-01-26T11:45:03.306Z,90.01
2019-01-26T11:46:03.316Z,90.39
2019-01-26T11:47:03.304Z,90.75
2019-01-26T11:48:03.284Z,90.50
2019-01-26T11:49:03.272Z,91.02
2019-01-26T11:50:03.246Z,90.64
2019-01-26T11:51:03.265Z,90.39
2019-01-26T11:52:03.226Z,90.91
2019-01-26T11:53:03.213Z,91.02
2019-01-26T11:54:03.204Z,90.56
2019-01-26T11:55:03.215Z,89.83
2019-01-26T11:56:03.198Z,90.14
2019-01-26T11:57:03.172Z,89.83
2019-01-26T11:58:03.162Z,89.83
2019-01-26T11:59:03.145Z,89.52
2019-01-26T12:00:03.147Z,89.10
2019-01-26T12:01:03.128Z,89.00
2019-01-26T12:02:03.120Z,87.96
2019-01-26T12:03:03.675Z,88.27
2019-01-26T12:04:03.120Z,88.02
2019-01-26T12:05:03.093Z,88.02
2019-01-26T12:06:03.071Z,88.23
2019-01-26T12:07:03.092Z,88.02
2019-01-26T12:08:03.055Z,87.81
2019-01-26T12:09:03.043Z,87.88
2019-01-26T12:10:03.041Z,87.71
2019-01-26T12:11:03.036Z,87.40
2019-01-26T12:12:03.037Z,87.50
2019-01-26T12:13:03.012Z,87.81
2019-01-26T12:14:02.991Z,87.98
2019-01-26T12:15:03.015Z,87.88
2019-01-26T12:16:02.961Z,87.35
2019-01-26T12:17:02.981Z,87.25
2019-01-26T12:18:02.942Z,87.35
2019-01-26T12:19:02.942Z,86.69
2019-01-26T12:20:02.914Z,85.86
2019-01-26T12:21:02.913Z,86.17
2019-01-26T12:22:02.931Z,86.49
2019-01-26T12:23:02.929Z,86.69
2019-01-26T12:24:02.870Z,86.65
2019-01-26T12:25:02.863Z,85.72
2019-01-26T12:26:02.874Z,86.07
2019-01-26T12:27:02.871Z,85.20
2019-01-26T12:28:02.831Z,85.51
2019-01-26T12:29:02.848Z,85.55
2019-01-26T12:30:02.825Z,85.51
2019-01-26T12:31:02.819Z,85.41
2019-01-26T12:32:02.784Z,84.99
2019-01-26T12:33:02.768Z,84.37
2019-01-26T12:34:02.757Z,85.61
2019-01-26T12:35:02.754Z,84.78
2019-01-26T12:36:02.739Z,84.68
2019-01-26T12:37:02.739Z,84.47
2019-01-26T12:38:02.719Z,84.68
2019-01-26T12:39:02.765Z,84.89
2019-01-26T12:40:02.717Z,84.58
2019-01-26T12:41:02.709Z,84.99
2019-01-26T12:42:02.690Z,84.22
2019-01-26T12:43:02.686Z,84.68
2019-01-26T12:44:02.674Z,84.64
2019-01-26T12:45:03.890Z,84.68
2019-01-26T12:46:02.671Z,84.53
2019-01-26T12:47:02.679Z,84.22
2019-01-26T12:48:02.613Z,84.33
2019-01-26T12:49:02.598Z,84.01
2019-01-26T12:50:02.589Z,83.81
2019-01-26T12:51:02.588Z,84.64
2019-01-26T12:52:02.577Z,83.70